sensor_id;sensor_type;location;lat;lon;timestamp;P1;durP1;ratioP1;P2;durP2;ratioP2
13985;SDS011;7067;51.832;8.296;2023-01-29T00:00:21;59.60;;;42.00;;
13985;SDS011;7067;51.832;8.296;2023-01-29T00:02:46;55.00;;;41.30;;
13985;SDS011;7067;51.832;8.296;2023-01-29T00:05:11;56.23;;;41.03;;
13985;SDS011;7067;51.832;8.296;2023-01-29T00:07:37;56.20;;;40.90;;
13985;SDS011;7067;51.832;8.296;2023-01-29T00:10:02;58.47;;;42.07;;
13985;SDS011;7067;51.832;8.296;2023-01-29T00:12:28;57.33;;;42.83;;
13985;SDS011;7067;51.832;8.296;2023-01-29T00:14:53;56.73;;;40.27;;
13985;SDS011;7067;51.832;8.296;2023-01-29T00:17:18;56.03;;;40.07;;
13985;SDS011;7067;51.832;8.296;2023-01-29T00:19:44;51.23;;;38.30;;
13985;SDS011;7067;51.832;8.296;2023-01-29T00:22:09;57.47;;;41.57;;
13985;SDS011;7067;51.832;8.296;2023-01-29T00:24:35;60.00;;;39.73;;
13985;SDS011;7067;51.832;8.296;2023-01-29T00:27:00;61.27;;;41.87;;
13985;SDS011;7067;51.832;8.296;2023-01-29T00:29:25;58.00;;;42.57;;
13985;SDS011;7067;51.832;8.296;2023-01-29T00:31:51;55.00;;;39.07;;
13985;SDS011;7067;51.832;8.296;2023-01-29T00:34:16;58.27;;;42.10;;
13985;SDS011;7067;51.832;8.296;2023-01-29T00:36:41;60.93;;;38.90;;
13985;SDS011;7067;51.832;8.296;2023-01-29T00:39:08;64.83;;;42.50;;
13985;SDS011;7067;51.832;8.296;2023-01-29T00:41:36;61.07;;;43.13;;
13985;SDS011;7067;51.832;8.296;2023-01-29T00:44:21;58.67;;;40.07;;
13985;SDS011;7067;51.832;8.296;2023-01-29T00:47:05;57.13;;;40.93;;
13985;SDS011;7067;51.832;8.296;2023-01-29T00:49:53;61.57;;;40.80;;
13985;SDS011;7067;51.832;8.296;2023-01-29T00:52:19;56.40;;;40.67;;
13985;SDS011;7067;51.832;8.296;2023-01-29T00:54:57;59.80;;;39.53;;
13985;SDS011;7067;51.832;8.296;2023-01-29T00:57:24;60.20;;;39.10;;
13985;SDS011;7067;51.832;8.296;2023-01-29T00:59:50;56.07;;;38.93;;
13985;SDS011;7067;51.832;8.296;2023-01-29T01:02:16;58.00;;;40.33;;
13985;SDS011;7067;51.832;8.296;2023-01-29T01:05:00;63.20;;;42.63;;
13985;SDS011;7067;51.832;8.296;2023-01-29T01:07:27;61.40;;;41.97;;
13985;SDS011;7067;51.832;8.296;2023-01-29T01:09:52;58.50;;;40.47;;
13985;SDS011;7067;51.832;8.296;2023-01-29T01:12:36;59.73;;;41.07;;
13985;SDS011;7067;51.832;8.296;2023-01-29T01:15:01;57.77;;;39.80;;
13985;SDS011;7067;51.832;8.296;2023-01-29T01:17:27;56.23;;;39.80;;
13985;SDS011;7067;51.832;8.296;2023-01-29T01:19:52;55.70;;;39.63;;
13985;SDS011;7067;51.832;8.296;2023-01-29T01:22:17;61.47;;;39.67;;
13985;SDS011;7067;51.832;8.296;2023-01-29T01:24:43;59.57;;;41.93;;
13985;SDS011;7067;51.832;8.296;2023-01-29T01:27:08;59.50;;;41.63;;
13985;SDS011;7067;51.832;8.296;2023-01-29T01:29:33;59.60;;;39.17;;
13985;SDS011;7067;51.832;8.296;2023-01-29T01:31:59;58.30;;;40.13;;
13985;SDS011;7067;51.832;8.296;2023-01-29T01:34:24;61.47;;;41.97;;
13985;SDS011;7067;51.832;8.296;2023-01-29T01:36:51;60.77;;;42.33;;
13985;SDS011;7067;51.832;8.296;2023-01-29T01:39:17;60.00;;;40.20;;
13985;SDS011;7067;51.832;8.296;2023-01-29T01:41:42;56.87;;;39.53;;
13985;SDS011;7067;51.832;8.296;2023-01-29T01:44:48;53.93;;;37.53;;
13985;SDS011;7067;51.832;8.296;2023-01-29T01:47:11;57.97;;;38.73;;
13985;SDS011;7067;51.832;8.296;2023-01-29T01:49:37;59.03;;;39.60;;
13985;SDS011;7067;51.832;8.296;2023-01-29T01:52:02;60.47;;;40.00;;
13985;SDS011;7067;51.832;8.296;2023-01-29T01:54:28;57.43;;;39.80;;
13985;SDS011;7067;51.832;8.296;2023-01-29T01:56:56;57.47;;;38.67;;
13985;SDS011;7067;51.832;8.296;2023-01-29T01:59:33;54.20;;;37.97;;
13985;SDS011;7067;51.832;8.296;2023-01-29T02:01:59;53.90;;;36.97;;
13985;SDS011;7067;51.832;8.296;2023-01-29T02:04:45;55.67;;;39.83;;
13985;SDS011;7067;51.832;8.296;2023-01-29T02:07:30;55.47;;;36.93;;
13985;SDS011;7067;51.832;8.296;2023-01-29T02:10:14;61.97;;;38.73;;
13985;SDS011;7067;51.832;8.296;2023-01-29T02:12:40;50.50;;;36.33;;
13985;SDS011;7067;51.832;8.296;2023-01-29T02:15:07;53.53;;;38.20;;
13985;SDS011;7067;51.832;8.296;2023-01-29T02:17:33;55.33;;;40.53;;
13985;SDS011;7067;51.832;8.296;2023-01-29T02:25:21;55.50;;;38.10;;
13985;SDS011;7067;51.832;8.296;2023-01-29T02:28:00;50.23;;;35.60;;
13985;SDS011;7067;51.832;8.296;2023-01-29T02:41:43;57.63;;;37.40;;
13985;SDS011;7067;51.832;8.296;2023-01-29T02:44:22;52.20;;;36.67;;
13985;SDS011;7067;51.832;8.296;2023-01-29T02:47:32;51.70;;;37.13;;
13985;SDS011;7067;51.832;8.296;2023-01-29T02:52:49;50.97;;;37.33;;
13985;SDS011;7067;51.832;8.296;2023-01-29T02:55:22;50.97;;;35.70;;
13985;SDS011;7067;51.832;8.296;2023-01-29T02:58:19;53.40;;;37.10;;
13985;SDS011;7067;51.832;8.296;2023-01-29T03:00:53;56.43;;;36.13;;
13985;SDS011;7067;51.832;8.296;2023-01-29T03:03:27;54.73;;;38.10;;
13985;SDS011;7067;51.832;8.296;2023-01-29T03:06:03;53.77;;;38.77;;
13985;SDS011;7067;51.832;8.296;2023-01-29T03:11:06;50.30;;;35.20;;
13985;SDS011;7067;51.832;8.296;2023-01-29T03:13:52;55.30;;;37.67;;
13985;SDS011;7067;51.832;8.296;2023-01-29T03:16:23;51.83;;;38.43;;
13985;SDS011;7067;51.832;8.296;2023-01-29T03:19:02;51.63;;;36.60;;
13985;SDS011;7067;51.832;8.296;2023-01-29T03:21:42;54.50;;;37.70;;
13985;SDS011;7067;51.832;8.296;2023-01-29T03:24:16;55.73;;;39.87;;
13985;SDS011;7067;51.832;8.296;2023-01-29T03:27:05;51.20;;;37.63;;
13985;SDS011;7067;51.832;8.296;2023-01-29T03:29:53;54.47;;;38.70;;
13985;SDS011;7067;51.832;8.296;2023-01-29T03:32:38;51.43;;;37.13;;
13985;SDS011;7067;51.832;8.296;2023-01-29T03:35:04;53.77;;;38.00;;
13985;SDS011;7067;51.832;8.296;2023-01-29T03:37:35;51.90;;;38.03;;
13985;SDS011;7067;51.832;8.296;2023-01-29T03:40:04;57.57;;;39.77;;
13985;SDS011;7067;51.832;8.296;2023-01-29T03:42:43;54.07;;;40.10;;
13985;SDS011;7067;51.832;8.296;2023-01-29T03:50:51;53.37;;;38.70;;
13985;SDS011;7067;51.832;8.296;2023-01-29T04:01:23;51.77;;;39.17;;
13985;SDS011;7067;51.832;8.296;2023-01-29T04:03:56;59.00;;;39.70;;
13985;SDS011;7067;51.832;8.296;2023-01-29T04:06:25;53.87;;;38.13;;
13985;SDS011;7067;51.832;8.296;2023-01-29T04:09:04;50.58;;;39.08;;
13985;SDS011;7067;51.832;8.296;2023-01-29T04:11:33;50.83;;;38.50;;
13985;SDS011;7067;51.832;8.296;2023-01-29T04:14:01;49.43;;;39.23;;
13985;SDS011;7067;51.832;8.296;2023-01-29T04:16:30;54.57;;;38.77;;
13985;SDS011;7067;51.832;8.296;2023-01-29T04:18:59;54.93;;;40.43;;
13985;SDS011;7067;51.832;8.296;2023-01-29T04:21:24;50.73;;;38.90;;
13985;SDS011;7067;51.832;8.296;2023-01-29T04:23:50;55.53;;;40.80;;
13985;SDS011;7067;51.832;8.296;2023-01-29T04:26:39;53.00;;;40.53;;
13985;SDS011;7067;51.832;8.296;2023-01-29T04:37:21;57.33;;;41.93;;
13985;SDS011;7067;51.832;8.296;2023-01-29T04:42:38;55.37;;;40.57;;
13985;SDS011;7067;51.832;8.296;2023-01-29T04:45:28;54.10;;;38.63;;
13985;SDS011;7067;51.832;8.296;2023-01-29T04:50:32;57.03;;;41.10;;
13985;SDS011;7067;51.832;8.296;2023-01-29T04:53:15;56.00;;;41.67;;
13985;SDS011;7067;51.832;8.296;2023-01-29T04:55:46;61.23;;;44.23;;
13985;SDS011;7067;51.832;8.296;2023-01-29T05:01:06;58.27;;;43.53;;
13985;SDS011;7067;51.832;8.296;2023-01-29T05:03:33;59.43;;;45.33;;
13985;SDS011;7067;51.832;8.296;2023-01-29T05:06:00;60.10;;;44.43;;
13985;SDS011;7067;51.832;8.296;2023-01-29T05:08:27;64.77;;;47.70;;
13985;SDS011;7067;51.832;8.296;2023-01-29T05:10:53;67.43;;;48.10;;
13985;SDS011;7067;51.832;8.296;2023-01-29T05:13:19;69.77;;;49.93;;
13985;SDS011;7067;51.832;8.296;2023-01-29T05:15:51;73.07;;;52.37;;
13985;SDS011;7067;51.832;8.296;2023-01-29T05:18:19;72.63;;;50.00;;
13985;SDS011;7067;51.832;8.296;2023-01-29T05:20:44;78.17;;;54.27;;
13985;SDS011;7067;51.832;8.296;2023-01-29T05:23:17;68.97;;;50.50;;
13985;SDS011;7067;51.832;8.296;2023-01-29T05:25:43;74.23;;;52.47;;
13985;SDS011;7067;51.832;8.296;2023-01-29T05:28:09;68.23;;;48.73;;
13985;SDS011;7067;51.832;8.296;2023-01-29T05:30:45;70.63;;;50.97;;
13985;SDS011;7067;51.832;8.296;2023-01-29T05:33:23;72.63;;;51.30;;
13985;SDS011;7067;51.832;8.296;2023-01-29T05:35:50;73.43;;;53.77;;
13985;SDS011;7067;51.832;8.296;2023-01-29T05:38:16;71.70;;;50.73;;
13985;SDS011;7067;51.832;8.296;2023-01-29T05:40:42;73.43;;;53.60;;
13985;SDS011;7067;51.832;8.296;2023-01-29T05:45:55;78.43;;;53.97;;
13985;SDS011;7067;51.832;8.296;2023-01-29T05:48:21;78.93;;;57.00;;
13985;SDS011;7067;51.832;8.296;2023-01-29T05:50:47;75.87;;;55.60;;
13985;SDS011;7067;51.832;8.296;2023-01-29T05:53:12;75.60;;;53.13;;
13985;SDS011;7067;51.832;8.296;2023-01-29T05:55:38;74.23;;;53.67;;
13985;SDS011;7067;51.832;8.296;2023-01-29T05:58:03;78.73;;;56.60;;
13985;SDS011;7067;51.832;8.296;2023-01-29T06:00:28;78.80;;;56.00;;
13985;SDS011;7067;51.832;8.296;2023-01-29T06:02:54;78.37;;;55.77;;
13985;SDS011;7067;51.832;8.296;2023-01-29T06:05:20;85.70;;;57.87;;
13985;SDS011;7067;51.832;8.296;2023-01-29T06:07:45;80.00;;;56.50;;
13985;SDS011;7067;51.832;8.296;2023-01-29T06:10:11;79.33;;;56.87;;
13985;SDS011;7067;51.832;8.296;2023-01-29T06:12:41;80.03;;;56.97;;
13985;SDS011;7067;51.832;8.296;2023-01-29T06:15:07;79.97;;;59.20;;
13985;SDS011;7067;51.832;8.296;2023-01-29T06:17:32;84.67;;;59.70;;
13985;SDS011;7067;51.832;8.296;2023-01-29T06:19:58;85.30;;;59.43;;
13985;SDS011;7067;51.832;8.296;2023-01-29T06:22:23;82.70;;;58.20;;
13985;SDS011;7067;51.832;8.296;2023-01-29T06:24:48;78.43;;;58.40;;
13985;SDS011;7067;51.832;8.296;2023-01-29T06:27:14;81.00;;;60.50;;
13985;SDS011;7067;51.832;8.296;2023-01-29T06:29:39;82.67;;;58.63;;
13985;SDS011;7067;51.832;8.296;2023-01-29T06:32:04;80.70;;;57.60;;
13985;SDS011;7067;51.832;8.296;2023-01-29T06:34:30;83.47;;;59.60;;
13985;SDS011;7067;51.832;8.296;2023-01-29T06:36:55;76.33;;;57.00;;
13985;SDS011;7067;51.832;8.296;2023-01-29T06:39:21;80.70;;;56.10;;
13985;SDS011;7067;51.832;8.296;2023-01-29T06:41:46;77.47;;;56.80;;
13985;SDS011;7067;51.832;8.296;2023-01-29T06:44:11;81.20;;;58.73;;
13985;SDS011;7067;51.832;8.296;2023-01-29T06:46:37;86.47;;;61.07;;
13985;SDS011;7067;51.832;8.296;2023-01-29T06:49:02;75.43;;;55.53;;
13985;SDS011;7067;51.832;8.296;2023-01-29T06:51:27;79.23;;;57.00;;
13985;SDS011;7067;51.832;8.296;2023-01-29T06:53:53;78.37;;;57.20;;
13985;SDS011;7067;51.832;8.296;2023-01-29T06:56:20;80.13;;;57.57;;
13985;SDS011;7067;51.832;8.296;2023-01-29T06:58:45;81.70;;;60.17;;
13985;SDS011;7067;51.832;8.296;2023-01-29T07:01:11;80.73;;;57.33;;
13985;SDS011;7067;51.832;8.296;2023-01-29T07:03:36;82.53;;;59.83;;
13985;SDS011;7067;51.832;8.296;2023-01-29T07:06:02;82.40;;;60.43;;
13985;SDS011;7067;51.832;8.296;2023-01-29T07:08:28;77.10;;;59.27;;
13985;SDS011;7067;51.832;8.296;2023-01-29T07:10:59;75.53;;;57.10;;
13985;SDS011;7067;51.832;8.296;2023-01-29T07:13:25;78.00;;;56.63;;
13985;SDS011;7067;51.832;8.296;2023-01-29T07:15:50;81.73;;;58.57;;
13985;SDS011;7067;51.832;8.296;2023-01-29T07:18:16;80.30;;;58.20;;
13985;SDS011;7067;51.832;8.296;2023-01-29T07:20:41;80.07;;;58.87;;
13985;SDS011;7067;51.832;8.296;2023-01-29T07:23:13;76.70;;;57.27;;
13985;SDS011;7067;51.832;8.296;2023-01-29T07:25:39;79.57;;;58.63;;
13985;SDS011;7067;51.832;8.296;2023-01-29T07:28:05;80.00;;;59.83;;
13985;SDS011;7067;51.832;8.296;2023-01-29T07:30:30;80.60;;;59.87;;
13985;SDS011;7067;51.832;8.296;2023-01-29T07:33:00;82.57;;;59.40;;
13985;SDS011;7067;51.832;8.296;2023-01-29T07:35:26;79.00;;;58.73;;
13985;SDS011;7067;51.832;8.296;2023-01-29T07:37:52;81.57;;;61.13;;
13985;SDS011;7067;51.832;8.296;2023-01-29T07:40:17;85.73;;;60.60;;
13985;SDS011;7067;51.832;8.296;2023-01-29T07:42:43;83.17;;;60.07;;
13985;SDS011;7067;51.832;8.296;2023-01-29T07:45:08;82.37;;;60.60;;
13985;SDS011;7067;51.832;8.296;2023-01-29T07:47:34;85.97;;;61.83;;
13985;SDS011;7067;51.832;8.296;2023-01-29T07:50:00;83.37;;;60.07;;
13985;SDS011;7067;51.832;8.296;2023-01-29T07:52:25;84.73;;;60.73;;
13985;SDS011;7067;51.832;8.296;2023-01-29T07:54:53;82.43;;;59.87;;
13985;SDS011;7067;51.832;8.296;2023-01-29T07:57:19;83.17;;;61.40;;
13985;SDS011;7067;51.832;8.296;2023-01-29T07:59:44;83.97;;;61.43;;
13985;SDS011;7067;51.832;8.296;2023-01-29T08:02:11;84.47;;;61.83;;
13985;SDS011;7067;51.832;8.296;2023-01-29T08:04:36;83.80;;;60.70;;
13985;SDS011;7067;51.832;8.296;2023-01-29T08:07:01;82.87;;;59.20;;
13985;SDS011;7067;51.832;8.296;2023-01-29T08:09:28;77.13;;;58.27;;
13985;SDS011;7067;51.832;8.296;2023-01-29T08:11:54;79.40;;;59.20;;
13985;SDS011;7067;51.832;8.296;2023-01-29T08:14:19;80.17;;;58.50;;
13985;SDS011;7067;51.832;8.296;2023-01-29T08:16:45;86.60;;;60.00;;
13985;SDS011;7067;51.832;8.296;2023-01-29T08:19:10;75.97;;;57.30;;
13985;SDS011;7067;51.832;8.296;2023-01-29T08:21:35;79.47;;;57.63;;
13985;SDS011;7067;51.832;8.296;2023-01-29T08:24:01;80.13;;;58.60;;
13985;SDS011;7067;51.832;8.296;2023-01-29T08:26:26;76.00;;;58.13;;
13985;SDS011;7067;51.832;8.296;2023-01-29T08:28:51;77.83;;;57.37;;
13985;SDS011;7067;51.832;8.296;2023-01-29T08:31:18;80.53;;;57.67;;
13985;SDS011;7067;51.832;8.296;2023-01-29T08:33:46;78.45;;;59.53;;
13985;SDS011;7067;51.832;8.296;2023-01-29T08:36:12;77.30;;;56.73;;
13985;SDS011;7067;51.832;8.296;2023-01-29T08:38:37;75.20;;;55.70;;
13985;SDS011;7067;51.832;8.296;2023-01-29T08:41:03;78.80;;;57.70;;
13985;SDS011;7067;51.832;8.296;2023-01-29T08:43:29;77.27;;;56.57;;
13985;SDS011;7067;51.832;8.296;2023-01-29T08:45:54;76.83;;;56.93;;
13985;SDS011;7067;51.832;8.296;2023-01-29T08:48:19;74.57;;;56.27;;
13985;SDS011;7067;51.832;8.296;2023-01-29T08:50:46;77.00;;;56.50;;
13985;SDS011;7067;51.832;8.296;2023-01-29T08:53:14;75.40;;;56.97;;
13985;SDS011;7067;51.832;8.296;2023-01-29T08:55:39;73.33;;;54.83;;
13985;SDS011;7067;51.832;8.296;2023-01-29T08:58:09;79.93;;;58.07;;
13985;SDS011;7067;51.832;8.296;2023-01-29T09:00:35;81.67;;;58.60;;
13985;SDS011;7067;51.832;8.296;2023-01-29T09:03:01;77.90;;;56.80;;
13985;SDS011;7067;51.832;8.296;2023-01-29T09:05:28;78.60;;;56.37;;
13985;SDS011;7067;51.832;8.296;2023-01-29T09:07:55;72.53;;;54.73;;
13985;SDS011;7067;51.832;8.296;2023-01-29T09:10:21;71.63;;;54.27;;
13985;SDS011;7067;51.832;8.296;2023-01-29T09:12:47;71.90;;;53.30;;
13985;SDS011;7067;51.832;8.296;2023-01-29T09:15:12;77.23;;;53.90;;
13985;SDS011;7067;51.832;8.296;2023-01-29T09:17:37;77.17;;;54.93;;
13985;SDS011;7067;51.832;8.296;2023-01-29T09:20:03;70.57;;;53.70;;
13985;SDS011;7067;51.832;8.296;2023-01-29T09:22:30;75.17;;;55.30;;
13985;SDS011;7067;51.832;8.296;2023-01-29T09:24:55;69.43;;;53.93;;
13985;SDS011;7067;51.832;8.296;2023-01-29T09:27:21;75.10;;;57.37;;
13985;SDS011;7067;51.832;8.296;2023-01-29T09:29:46;69.63;;;52.70;;
13985;SDS011;7067;51.832;8.296;2023-01-29T09:32:11;70.63;;;54.37;;
13985;SDS011;7067;51.832;8.296;2023-01-29T09:34:37;73.53;;;55.00;;
13985;SDS011;7067;51.832;8.296;2023-01-29T09:37:02;69.93;;;53.53;;
13985;SDS011;7067;51.832;8.296;2023-01-29T09:39:27;69.20;;;50.70;;
13985;SDS011;7067;51.832;8.296;2023-01-29T09:47:40;66.37;;;50.83;;
13985;SDS011;7067;51.832;8.296;2023-01-29T09:50:12;67.30;;;51.67;;
13985;SDS011;7067;51.832;8.296;2023-01-29T09:57:57;76.33;;;53.10;;
13985;SDS011;7067;51.832;8.296;2023-01-29T10:00:24;71.33;;;52.77;;
13985;SDS011;7067;51.832;8.296;2023-01-29T10:03:03;67.13;;;52.73;;
13985;SDS011;7067;51.832;8.296;2023-01-29T10:10:53;69.07;;;50.33;;
13985;SDS011;7067;51.832;8.296;2023-01-29T10:13:26;68.97;;;50.90;;
13985;SDS011;7067;51.832;8.296;2023-01-29T10:18:41;67.33;;;48.63;;
13985;SDS011;7067;51.832;8.296;2023-01-29T10:26:32;60.63;;;44.13;;
13985;SDS011;7067;51.832;8.296;2023-01-29T10:28:59;58.67;;;42.43;;
13985;SDS011;7067;51.832;8.296;2023-01-29T10:31:29;60.43;;;44.63;;
13985;SDS011;7067;51.832;8.296;2023-01-29T10:33:59;61.67;;;42.73;;
13985;SDS011;7067;51.832;8.296;2023-01-29T10:36:31;58.50;;;43.30;;
13985;SDS011;7067;51.832;8.296;2023-01-29T10:38:57;53.58;;;40.78;;
13985;SDS011;7067;51.832;8.296;2023-01-29T10:50:14;55.83;;;41.23;;
13985;SDS011;7067;51.832;8.296;2023-01-29T10:53:03;55.27;;;40.00;;
13985;SDS011;7067;51.832;8.296;2023-01-29T11:01:02;55.20;;;39.53;;
13985;SDS011;7067;51.832;8.296;2023-01-29T11:03:28;53.93;;;40.07;;
13985;SDS011;7067;51.832;8.296;2023-01-29T11:14:24;56.63;;;41.13;;
13985;SDS011;7067;51.832;8.296;2023-01-29T11:16:51;54.28;;;40.28;;
13985;SDS011;7067;51.832;8.296;2023-01-29T11:19:17;54.67;;;40.33;;
13985;SDS011;7067;51.832;8.296;2023-01-29T11:24:23;56.90;;;41.83;;
13985;SDS011;7067;51.832;8.296;2023-01-29T11:26:50;55.33;;;42.40;;
13985;SDS011;7067;51.832;8.296;2023-01-29T11:31:54;54.27;;;40.13;;
13985;SDS011;7067;51.832;8.296;2023-01-29T11:34:22;57.33;;;42.10;;
13985;SDS011;7067;51.832;8.296;2023-01-29T11:36:56;50.17;;;40.10;;
13985;SDS011;7067;51.832;8.296;2023-01-29T11:39:25;56.57;;;42.37;;
13985;SDS011;7067;51.832;8.296;2023-01-29T11:41:54;52.93;;;39.93;;
13985;SDS011;7067;51.832;8.296;2023-01-29T11:44:25;63.93;;;45.40;;
13985;SDS011;7067;51.832;8.296;2023-01-29T11:47:10;52.40;;;40.80;;
13985;SDS011;7067;51.832;8.296;2023-01-29T11:49:36;55.03;;;41.33;;
13985;SDS011;7067;51.832;8.296;2023-01-29T11:52:03;52.17;;;40.07;;
13985;SDS011;7067;51.832;8.296;2023-01-29T11:54:31;54.70;;;41.57;;
13985;SDS011;7067;51.832;8.296;2023-01-29T11:57:00;58.10;;;41.43;;
13985;SDS011;7067;51.832;8.296;2023-01-29T12:01:54;51.47;;;38.53;;
13985;SDS011;7067;51.832;8.296;2023-01-29T12:04:21;49.47;;;38.17;;
13985;SDS011;7067;51.832;8.296;2023-01-29T12:06:48;52.10;;;39.03;;
13985;SDS011;7067;51.832;8.296;2023-01-29T12:09:17;53.80;;;39.43;;
13985;SDS011;7067;51.832;8.296;2023-01-29T12:11:44;53.77;;;39.73;;
13985;SDS011;7067;51.832;8.296;2023-01-29T12:14:22;53.93;;;40.93;;
13985;SDS011;7067;51.832;8.296;2023-01-29T12:16:58;51.80;;;39.70;;
13985;SDS011;7067;51.832;8.296;2023-01-29T12:19:49;51.07;;;38.73;;
13985;SDS011;7067;51.832;8.296;2023-01-29T12:22:30;52.47;;;39.10;;
13985;SDS011;7067;51.832;8.296;2023-01-29T12:25:08;51.50;;;40.70;;
13985;SDS011;7067;51.832;8.296;2023-01-29T12:27:59;58.43;;;41.17;;
13985;SDS011;7067;51.832;8.296;2023-01-29T12:34:22;52.60;;;40.10;;
13985;SDS011;7067;51.832;8.296;2023-01-29T12:36:33;68.87;;;40.30;;
13985;SDS011;7067;51.832;8.296;2023-01-29T12:39:02;58.80;;;41.60;;
13985;SDS011;7067;51.832;8.296;2023-01-29T12:41:33;53.20;;;40.00;;
13985;SDS011;7067;51.832;8.296;2023-01-29T12:44:13;56.20;;;40.43;;
13985;SDS011;7067;51.832;8.296;2023-01-29T12:46:45;56.30;;;40.92;;
13985;SDS011;7067;51.832;8.296;2023-01-29T12:49:17;59.00;;;42.57;;
13985;SDS011;7067;51.832;8.296;2023-01-29T12:51:49;52.07;;;39.20;;
13985;SDS011;7067;51.832;8.296;2023-01-29T12:54:19;53.30;;;39.83;;
13985;SDS011;7067;51.832;8.296;2023-01-29T12:56:47;62.53;;;42.07;;
13985;SDS011;7067;51.832;8.296;2023-01-29T12:59:28;55.03;;;41.17;;
13985;SDS011;7067;51.832;8.296;2023-01-29T13:02:22;56.83;;;40.93;;
13985;SDS011;7067;51.832;8.296;2023-01-29T13:05:04;59.80;;;41.50;;
13985;SDS011;7067;51.832;8.296;2023-01-29T13:07:41;55.97;;;41.13;;
13985;SDS011;7067;51.832;8.296;2023-01-29T13:10:11;56.33;;;43.13;;
13985;SDS011;7067;51.832;8.296;2023-01-29T13:12:39;52.67;;;41.73;;
13985;SDS011;7067;51.832;8.296;2023-01-29T13:15:22;53.87;;;41.87;;
13985;SDS011;7067;51.832;8.296;2023-01-29T13:18:36;53.67;;;41.03;;
13985;SDS011;7067;51.832;8.296;2023-01-29T13:20:45;55.23;;;40.43;;
13985;SDS011;7067;51.832;8.296;2023-01-29T13:23:19;55.37;;;42.63;;
13985;SDS011;7067;51.832;8.296;2023-01-29T13:25:50;57.17;;;43.37;;
13985;SDS011;7067;51.832;8.296;2023-01-29T13:28:17;54.78;;;42.40;;
13985;SDS011;7067;51.832;8.296;2023-01-29T13:30:43;52.90;;;41.67;;
13985;SDS011;7067;51.832;8.296;2023-01-29T13:33:16;56.87;;;42.00;;
13985;SDS011;7067;51.832;8.296;2023-01-29T13:35:46;53.17;;;38.37;;
13985;SDS011;7067;51.832;8.296;2023-01-29T13:38:23;56.17;;;40.20;;
13985;SDS011;7067;51.832;8.296;2023-01-29T13:40:49;56.27;;;41.03;;
13985;SDS011;7067;51.832;8.296;2023-01-29T13:43:19;50.77;;;41.00;;
13985;SDS011;7067;51.832;8.296;2023-01-29T13:45:45;51.63;;;40.27;;
13985;SDS011;7067;51.832;8.296;2023-01-29T13:50:56;55.83;;;42.47;;
13985;SDS011;7067;51.832;8.296;2023-01-29T13:53:31;50.13;;;38.38;;
13985;SDS011;7067;51.832;8.296;2023-01-29T13:58:57;52.00;;;39.80;;
13985;SDS011;7067;51.832;8.296;2023-01-29T14:04:19;81.43;;;43.40;;
13985;SDS011;7067;51.832;8.296;2023-01-29T14:06:52;50.73;;;39.57;;
13985;SDS011;7067;51.832;8.296;2023-01-29T14:12:48;48.37;;;38.47;;
13985;SDS011;7067;51.832;8.296;2023-01-29T14:17:15;48.50;;;38.90;;
13985;SDS011;7067;51.832;8.296;2023-01-29T14:19:48;48.57;;;37.90;;
13985;SDS011;7067;51.832;8.296;2023-01-29T14:22:20;48.33;;;38.17;;
13985;SDS011;7067;51.832;8.296;2023-01-29T14:24:47;49.80;;;39.53;;
13985;SDS011;7067;51.832;8.296;2023-01-29T14:27:23;48.23;;;38.93;;
13985;SDS011;7067;51.832;8.296;2023-01-29T14:29:51;45.10;;;36.47;;
13985;SDS011;7067;51.832;8.296;2023-01-29T14:32:27;45.73;;;37.00;;
13985;SDS011;7067;51.832;8.296;2023-01-29T14:34:58;44.80;;;36.53;;
13985;SDS011;7067;51.832;8.296;2023-01-29T14:39:51;46.93;;;35.70;;
13985;SDS011;7067;51.832;8.296;2023-01-29T14:47:19;88.27;;;42.60;;
13985;SDS011;7067;51.832;8.296;2023-01-29T14:49:51;46.37;;;34.80;;
13985;SDS011;7067;51.832;8.296;2023-01-29T14:52:37;43.90;;;35.70;;
13985;SDS011;7067;51.832;8.296;2023-01-29T14:55:06;50.13;;;40.10;;
13985;SDS011;7067;51.832;8.296;2023-01-29T14:57:33;43.15;;;35.85;;
13985;SDS011;7067;51.832;8.296;2023-01-29T15:00:00;42.83;;;34.00;;
13985;SDS011;7067;51.832;8.296;2023-01-29T15:02:50;42.47;;;34.42;;
13985;SDS011;7067;51.832;8.296;2023-01-29T15:05:23;45.80;;;36.53;;
13985;SDS011;7067;51.832;8.296;2023-01-29T15:10:26;47.50;;;36.47;;
13985;SDS011;7067;51.832;8.296;2023-01-29T15:13:07;46.03;;;35.90;;
13985;SDS011;7067;51.832;8.296;2023-01-29T15:15:55;44.60;;;35.87;;
13985;SDS011;7067;51.832;8.296;2023-01-29T15:18:36;80.35;;;38.10;;
13985;SDS011;7067;51.832;8.296;2023-01-29T15:21:10;45.33;;;35.73;;
13985;SDS011;7067;51.832;8.296;2023-01-29T15:23:39;56.13;;;37.27;;
13985;SDS011;7067;51.832;8.296;2023-01-29T15:26:07;43.60;;;34.17;;
13985;SDS011;7067;51.832;8.296;2023-01-29T15:28:40;41.50;;;33.93;;
13985;SDS011;7067;51.832;8.296;2023-01-29T15:31:06;42.43;;;34.00;;
13985;SDS011;7067;51.832;8.296;2023-01-29T15:33:37;50.57;;;34.63;;
13985;SDS011;7067;51.832;8.296;2023-01-29T15:36:02;43.13;;;34.63;;
13985;SDS011;7067;51.832;8.296;2023-01-29T15:38:29;45.23;;;35.10;;
13985;SDS011;7067;51.832;8.296;2023-01-29T15:40:59;46.67;;;35.90;;
13985;SDS011;7067;51.832;8.296;2023-01-29T15:43:35;50.93;;;34.67;;
13985;SDS011;7067;51.832;8.296;2023-01-29T15:46:05;42.83;;;34.57;;
13985;SDS011;7067;51.832;8.296;2023-01-29T15:48:34;44.43;;;35.13;;
13985;SDS011;7067;51.832;8.296;2023-01-29T15:51:04;44.03;;;35.33;;
13985;SDS011;7067;51.832;8.296;2023-01-29T15:53:35;52.13;;;36.03;;
13985;SDS011;7067;51.832;8.296;2023-01-29T15:56:08;46.13;;;35.50;;
13985;SDS011;7067;51.832;8.296;2023-01-29T15:58:35;43.80;;;34.23;;
13985;SDS011;7067;51.832;8.296;2023-01-29T16:01:01;47.57;;;34.17;;
13985;SDS011;7067;51.832;8.296;2023-01-29T16:03:29;42.83;;;33.80;;
13985;SDS011;7067;51.832;8.296;2023-01-29T16:05:55;45.57;;;34.57;;
13985;SDS011;7067;51.832;8.296;2023-01-29T16:08:21;41.37;;;32.73;;
13985;SDS011;7067;51.832;8.296;2023-01-29T16:10:57;74.10;;;36.90;;
13985;SDS011;7067;51.832;8.296;2023-01-29T16:13:30;54.80;;;34.33;;
13985;SDS011;7067;51.832;8.296;2023-01-29T16:18:38;45.73;;;34.27;;
13985;SDS011;7067;51.832;8.296;2023-01-29T16:21:14;44.80;;;33.57;;
13985;SDS011;7067;51.832;8.296;2023-01-29T16:23:49;40.23;;;30.53;;
13985;SDS011;7067;51.832;8.296;2023-01-29T16:26:17;43.73;;;31.23;;
13985;SDS011;7067;51.832;8.296;2023-01-29T16:28:45;39.53;;;31.03;;
13985;SDS011;7067;51.832;8.296;2023-01-29T16:31:10;38.97;;;30.87;;
13985;SDS011;7067;51.832;8.296;2023-01-29T16:33:38;36.57;;;29.50;;
13985;SDS011;7067;51.832;8.296;2023-01-29T16:36:12;40.77;;;30.63;;
13985;SDS011;7067;51.832;8.296;2023-01-29T16:38:45;38.73;;;31.00;;
13985;SDS011;7067;51.832;8.296;2023-01-29T16:41:26;46.40;;;31.60;;
13985;SDS011;7067;51.832;8.296;2023-01-29T16:46:46;36.23;;;29.80;;
13985;SDS011;7067;51.832;8.296;2023-01-29T16:51:49;38.40;;;29.47;;
13985;SDS011;7067;51.832;8.296;2023-01-29T16:54:15;39.47;;;29.93;;
13985;SDS011;7067;51.832;8.296;2023-01-29T16:56:45;38.03;;;28.80;;
13985;SDS011;7067;51.832;8.296;2023-01-29T16:59:22;38.65;;;29.17;;
13985;SDS011;7067;51.832;8.296;2023-01-29T17:01:54;38.20;;;28.93;;
13985;SDS011;7067;51.832;8.296;2023-01-29T17:04:19;39.63;;;28.97;;
13985;SDS011;7067;51.832;8.296;2023-01-29T17:06:46;38.57;;;29.30;;
13985;SDS011;7067;51.832;8.296;2023-01-29T17:09:23;37.60;;;29.00;;
13985;SDS011;7067;51.832;8.296;2023-01-29T17:11:52;39.03;;;30.13;;
13985;SDS011;7067;51.832;8.296;2023-01-29T17:14:20;39.77;;;29.67;;